Time;durP1;ratioP1;P1;durP2;ratioP2;P2;SDS_P1;SDS_P2;PMS_P1;PMS_P2;Temp;Humidity;BMP_temperature;BMP_pressure;BME280_temperature;BME280_humidity;BME280_pressure;Samples;Min_cycle;Max_cycle;Signal;HPM_P1;HPM_P2
2022/11/18 00:01:37;;;;;;;17.97;11.47;;;;;;;6.55;86.59;94213.01;1711340;84;20979;-62
2022/11/18 00:04:04;;;;;;;20.37;13.60;;;;;;;6.52;86.77;94223.55;1711048;84;21030;-61
2022/11/18 00:06:30;;;;;;;19.97;11.90;;;;;;;6.56;87.06;94218.65;1711375;84;21001;-61
2022/11/18 00:08:59;;;;;;;21.87;13.43;;;;;;;6.52;86.37;94210.89;1708912;83;21026;-61
2022/11/18 00:14:23;;;;;;;19.63;12.07;;;;;;;6.55;86.76;94210.81;1657141;87;21495;-61
2022/11/18 00:17:00;;;;;;;15.70;10.03;;;;;;;6.52;86.79;94214.83;1657039;87;21505;-61
2022/11/18 00:19:33;;;;;;;13.87;8.33;;;;;;;6.53;86.84;94217.42;1680661;84;21018;-61
2022/11/18 00:22:00;;;;;;;10.25;6.95;;;;;;;6.55;86.66;94219.56;1705187;84;21070;-61
2022/11/18 00:24:28;;;;;;;14.47;8.90;;;;;;;6.50;86.17;94208.30;1705619;83;21504;-62
2022/11/18 00:26:56;;;;;;;10.53;7.40;;;;;;;6.49;86.79;94210.52;1705867;84;21505;-61
2022/11/18 00:29:27;;;;;;;10.93;6.53;;;;;;;6.59;87.33;94209.84;1705726;83;20983;-61
2022/11/18 00:31:55;;;;;;;13.07;7.57;;;;;;;6.58;86.24;94207.68;1705566;83;21002;-61
2022/11/18 00:34:22;;;;;;;12.40;7.37;;;;;;;6.60;86.93;94215.48;1675964;84;21129;-61
2022/11/18 00:36:49;;;;;;;14.03;7.87;;;;;;;6.59;86.42;94221.64;1705589;83;21042;-61
2022/11/18 00:39:18;;;;;;;20.53;10.90;;;;;;;6.57;86.64;94219.05;1705895;84;21054;-62
2022/11/18 00:44:31;;;;;;;19.33;10.93;;;;;;;6.53;86.25;94216.11;1705760;83;21013;-62
2022/11/18 00:46:58;;;;;;;16.37;10.60;;;;;;;6.44;86.04;94216.33;1705394;83;21078;-62
2022/11/18 00:49:25;;;;;;;21.27;11.17;;;;;;;6.34;85.88;94214.38;1705715;84;21009;-62
2022/11/18 00:51:51;;;;;;;16.27;9.90;;;;;;;6.30;86.52;94211.44;1705013;84;21639;-62
2022/11/18 00:54:19;;;;;;;10.90;7.63;;;;;;;6.33;86.65;94220.53;1705778;84;21111;-61
2022/11/18 00:56:46;;;;;;;14.50;8.43;;;;;;;6.25;86.48;94214.63;1705714;84;21603;-61
2022/11/18 00:59:13;;;;;;;14.27;8.40;;;;;;;6.16;86.80;94224.85;1705846;84;21031;-61
2022/11/18 01:01:39;;;;;;;12.67;8.20;;;;;;;6.15;87.04;94215.28;1706057;84;20995;-61
2022/11/18 01:04:08;;;;;;;15.67;8.40;;;;;;;6.11;86.58;94205.77;1705510;84;21834;-61
2022/11/18 01:06:34;;;;;;;16.90;8.50;;;;;;;6.09;86.73;94218.03;1705410;84;21037;-62
2022/11/18 01:09:01;;;;;;;18.43;9.87;;;;;;;6.13;87.05;94222.31;1708463;84;21464;-61
2022/11/18 01:14:12;;;;;;;12.97;7.97;;;;;;;6.10;87.02;94216.27;1713940;84;21089;-61
2022/11/18 01:16:39;;;;;;;20.73;11.73;;;;;;;6.05;87.47;94208.09;1714120;83;21029;-61
2022/11/18 01:19:06;;;;;;;21.57;13.17;;;;;;;6.10;87.81;94209.72;1713562;84;21090;-61
2022/11/18 01:21:32;;;;;;;18.67;12.47;;;;;;;6.10;87.83;94192.70;1713850;84;22498;-61
2022/11/18 01:23:59;;;;;;;12.73;7.93;;;;;;;6.08;87.45;94197.99;1713945;84;21032;-62
2022/11/18 01:26:26;;;;;;;13.47;8.53;;;;;;;6.10;87.50;94194.90;1714349;83;21017;-62
2022/11/18 01:28:56;;;;;;;11.90;7.30;;;;;;;6.16;87.75;94197.35;1687742;84;21057;-61
2022/11/18 01:31:24;;;;;;;17.40;8.27;;;;;;;6.23;87.98;94194.16;1714289;84;20966;-62
2022/11/18 01:33:51;;;;;;;13.17;8.70;;;;;;;6.21;87.45;94192.02;1713614;83;21038;-62
2022/11/18 01:36:22;;;;;;;13.80;8.67;;;;;;;6.22;87.50;94194.61;1714081;84;21033;-61
2022/11/18 01:38:49;;;;;;;13.57;9.00;;;;;;;6.25;87.35;94190.59;1714057;83;21042;-61
2022/11/18 01:41:18;;;;;;;15.13;9.70;;;;;;;6.29;87.53;94186.13;1714075;83;21058;-61
2022/11/18 01:43:57;;;;;;;15.07;9.37;;;;;;;6.33;87.32;94184.31;1714026;83;21560;-61
2022/11/18 01:46:27;;;;;;;12.47;8.67;;;;;;;6.36;87.37;94176.37;1714150;84;21468;-61
2022/11/18 01:49:10;;;;;;;12.57;8.70;;;;;;;6.37;86.85;94176.31;1713741;84;21069;-61
2022/11/18 01:51:54;;;;;;;16.60;9.28;;;;;;;6.42;87.43;94190.61;1714164;84;21006;-61
2022/11/18 01:54:35;;;;;;;18.73;9.85;;;;;;;6.48;86.96;94186.09;1714172;83;21022;-61
2022/11/18 01:57:07;;;;;;;15.87;9.07;;;;;;;6.41;86.67;94188.45;1713688;83;21551;-62
2022/11/18 01:59:38;;;;;;;14.73;9.37;;;;;;;6.39;86.66;94191.55;1714129;83;21567;-62
2022/11/18 02:02:10;;;;;;;13.93;9.43;;;;;;;6.44;87.31;94187.51;1713910;83;21024;-61
2022/11/18 02:04:40;;;;;;;16.07;9.33;;;;;;;6.46;86.80;94176.55;1714039;84;21029;-61
2022/11/18 02:07:08;;;;;;;14.90;9.00;;;;;;;6.51;87.26;94186.45;1713494;83;21097;-61
2022/11/18 02:09:37;;;;;;;15.83;9.50;;;;;;;6.57;86.95;94171.88;1710001;83;21110;-62
2022/11/18 02:12:06;;;;;;;14.57;9.43;;;;;;;6.56;87.08;94174.09;1705764;83;21030;-61
2022/11/18 02:14:39;;;;;;;17.10;10.00;;;;;;;6.55;86.39;94171.08;1705776;84;21544;-61
2022/11/18 02:17:48;;;;;;;13.33;9.27;;;;;;;6.49;86.28;94166.83;1705538;83;21054;-61
2022/11/18 02:20:37;;;;;;;13.07;8.37;;;;;;;6.55;87.09;94165.84;1705958;84;21054;-61
2022/11/18 02:23:27;;;;;;;17.23;9.70;;;;;;;6.53;86.29;94165.44;1687105;84;21011;-61
2022/11/18 02:26:19;;;;;;;14.33;8.73;;;;;;;6.45;86.48;94157.35;1705059;84;21504;-61
2022/11/18 02:29:12;;;;;;;12.97;8.83;;;;;;;6.47;87.29;94155.53;1705954;84;21093;-61
2022/11/18 02:32:02;;;;;;;15.50;9.75;;;;;;;6.49;86.81;94158.12;1701450;84;21049;-61
2022/11/18 02:35:01;;;;;;;15.17;10.27;;;;;;;6.42;86.78;94160.02;1705755;84;21065;-61
2022/11/18 02:38:10;;;;;;;12.97;8.70;;;;;;;6.37;86.79;94151.42;1705374;83;21492;-61
2022/11/18 02:40:47;;;;;;;15.40;10.37;;;;;;;6.37;86.85;94151.88;1705365;84;21077;-61
2022/11/18 02:43:18;;;;;;;16.40;9.50;;;;;;;6.38;87.39;94146.61;1705771;84;21050;-61
2022/11/18 02:45:50;;;;;;;13.93;9.33;;;;;;;6.34;86.79;94144.96;1705672;84;21106;-62
2022/11/18 02:48:19;;;;;;;14.77;9.43;;;;;;;6.27;86.66;94135.11;1705687;83;21007;-61
2022/11/18 02:50:49;;;;;;;16.57;10.57;;;;;;;6.22;86.99;94140.03;1705624;84;21122;-61
2022/11/18 02:53:19;;;;;;;15.27;9.40;;;;;;;6.19;87.25;94132.25;1705332;84;21046;-62
2022/11/18 02:55:47;;;;;;;15.20;8.53;;;;;;;6.14;86.98;94143.30;1705753;84;21137;-61
2022/11/18 02:58:17;;;;;;;17.23;10.00;;;;;;;6.07;86.74;94139.95;1675600;84;21057;-62
2022/11/18 03:00:44;;;;;;;15.57;9.07;;;;;;;6.03;87.14;94148.80;1705726;84;21065;-61
2022/11/18 03:03:33;;;;;;;16.13;9.13;;;;;;;6.02;87.41;94149.26;1705930;84;21090;-61
2022/11/18 03:06:28;;;;;;;15.27;9.00;;;;;;;5.96;87.03;94151.16;1705528;84;21041;-61
2022/11/18 03:09:11;;;;;;;15.83;10.20;;;;;;;5.94;87.15;94151.63;1705546;83;21002;-61
2022/11/18 03:12:17;;;;;;;11.57;8.48;;;;;;;5.97;87.43;94148.94;1705780;83;21034;-61
2022/11/18 03:15:17;;;;;;;16.17;9.23;;;;;;;5.93;87.12;94152.05;1704447;84;21018;-61
2022/11/18 03:18:01;;;;;;;19.73;9.77;;;;;;;5.91;87.56;94159.08;1699129;84;21050;-61
2022/11/18 03:20:35;;;;;;;18.63;9.33;;;;;;;5.98;87.86;94165.08;1705565;84;21033;-61
2022/11/18 03:23:13;;;;;;;15.47;10.17;;;;;;;6.02;87.83;94160.16;1705745;84;21041;-61
2022/11/18 03:25:54;;;;;;;21.50;9.80;;;;;;;5.98;87.80;94158.07;1705918;84;21514;-61
2022/11/18 03:28:38;;;;;;;14.90;9.10;;;;;;;5.95;87.62;94146.38;1705531;84;21126;-61
2022/11/18 03:31:16;;;;;;;17.60;10.07;;;;;;;5.94;87.60;94149.87;1699751;84;21050;-61
2022/11/18 03:33:55;;;;;;;14.40;9.13;;;;;;;5.96;87.90;94146.77;1705640;83;21109;-61
2022/11/18 03:36:26;;;;;;;13.90;9.43;;;;;;;6.10;88.78;94145.56;1705562;83;21065;-62
2022/11/18 03:38:57;;;;;;;15.20;9.37;;;;;;;6.12;88.22;94131.99;1705750;83;21049;-61
2022/11/18 03:41:28;;;;;;;16.17;9.40;;;;;;;6.18;88.30;94127.93;1705740;84;21419;-61
2022/11/18 03:44:03;;;;;;;13.67;9.43;;;;;;;6.20;87.59;94130.92;1706135;83;21041;-61
2022/11/18 03:46:40;;;;;;;15.70;9.97;;;;;;;6.22;87.63;94128.23;1705688;84;21540;-61
2022/11/18 03:49:11;;;;;;;18.30;9.23;;;;;;;6.23;87.54;94132.59;1705632;83;21551;-61
2022/11/18 03:51:43;;;;;;;14.90;8.83;;;;;;;6.22;87.37;94133.06;1705855;84;21146;-61
2022/11/18 03:54:15;;;;;;;17.80;9.03;;;;;;;6.26;87.77;94124.66;1704927;84;21034;-61
2022/11/18 03:56:46;;;;;;;13.97;8.70;;;;;;;6.28;87.59;94116.31;1705731;84;21082;-61
2022/11/18 03:59:21;;;;;;;13.40;9.00;;;;;;;6.21;87.01;94106.89;1705843;84;21137;-61
2022/11/18 04:01:55;;;;;;;12.07;8.20;;;;;;;6.18;87.13;94103.91;1705502;84;21089;-61
2022/11/18 04:04:24;;;;;;;12.77;8.73;;;;;;;6.15;87.08;94091.31;1705586;84;21034;-61
2022/11/18 04:06:59;;;;;;;12.57;8.77;;;;;;;6.13;87.45;94094.45;1705901;84;21038;-61
2022/11/18 04:09:30;;;;;;;11.93;8.90;;;;;;;6.10;87.25;94093.20;1697500;83;21520;-61
2022/11/18 04:12:05;;;;;;;15.30;9.10;;;;;;;6.10;87.40;94082.30;1711096;84;21045;-61
2022/11/18 04:14:39;;;;;;;13.43;7.00;;;;;;;6.05;86.97;94071.94;1711035;84;21552;-62
2022/11/18 04:17:15;;;;;;;12.10;7.40;;;;;;;6.05;87.55;94071.94;1710999;84;21559;-61
2022/11/18 04:19:42;;;;;;;12.83;7.87;;;;;;;6.03;87.13;94055.86;1711124;84;21049;-62
2022/11/18 04:22:10;;;;;;;9.77;6.13;;;;;;;5.97;86.80;94058.19;1711193;84;21026;-62
2022/11/18 04:24:37;;;;;;;10.37;7.17;;;;;;;5.90;86.90;94063.59;1710906;84;21556;-62
2022/11/18 04:27:05;;;;;;;10.50;6.47;;;;;;;5.81;86.99;94058.97;1711170;84;21010;-62
2022/11/18 04:29:33;;;;;;;6.90;4.80;;;;;;;5.76;86.96;94063.45;1710479;84;21128;-61
2022/11/18 04:32:01;;;;;;;6.10;4.77;;;;;;;5.68;87.05;94071.09;1711144;84;21507;-61
2022/11/18 04:34:29;;;;;;;4.67;3.50;;;;;;;5.61;87.19;94063.37;1711094;84;21029;-62
2022/11/18 04:36:57;;;;;;;4.23;3.23;;;;;;;5.54;87.04;94049.17;1710651;84;21065;-62
2022/11/18 04:39:24;;;;;;;4.27;3.00;;;;;;;5.46;87.20;94056.36;1710982;84;21049;-62
2022/11/18 04:41:56;;;;;;;3.70;2.07;;;;;;;5.40;87.75;94056.05;1711085;84;21022;-62
2022/11/18 04:44:30;;;;;;;3.47;1.90;;;;;;;5.34;87.85;94070.14;1710837;84;20986;-61
2022/11/18 04:46:59;;;;;;;3.30;1.90;;;;;;;5.33;87.94;94081.48;1711108;84;21543;-60
2022/11/18 04:49:27;;;;;;;2.57;2.03;;;;;;;5.21;87.61;94080.45;1710785;84;21221;-60
2022/11/18 04:51:54;;;;;;;2.57;2.23;;;;;;;5.18;87.88;94084.44;1710791;84;21002;-60
2022/11/18 04:54:23;;;;;;;132.60;102.47;;;;;;;5.17;87.92;94095.81;1710947;84;21074;-62
2022/11/18 04:56:49;;;;;;;35.07;27.80;;;;;;;5.08;87.73;94086.84;1711071;84;21073;-62
2022/11/18 04:59:20;;;;;;;20.23;16.60;;;;;;;5.05;88.21;94090.84;1710997;84;21077;-63
2022/11/18 05:01:48;;;;;;;2.73;1.90;;;;;;;4.96;87.89;94089.27;1711127;84;21045;-62
2022/11/18 05:04:19;;;;;;;1.50;1.33;;;;;;;4.94;88.30;94095.85;1711168;84;21061;-62
2022/11/18 05:06:45;;;;;;;2.13;1.43;;;;;;;4.97;88.55;94093.63;1711188;84;20997;-62
2022/11/18 05:09:12;;;;;;;1.93;1.70;;;;;;;5.06;89.12;94087.32;1710968;84;21033;-62
2022/11/18 05:14:26;;;;;;;17.57;8.97;;;;;;;5.02;88.08;94086.54;1710851;84;21521;-62
2022/11/18 05:16:54;;;;;;;96.30;46.73;;;;;;;4.99;88.53;94090.08;1710979;84;21085;-62
2022/11/18 05:19:21;;;;;;;84.67;39.77;;;;;;;4.96;88.38;94094.07;1710882;84;21500;-62
2022/11/18 05:21:47;;;;;;;35.20;17.83;;;;;;;4.94;88.36;94089.77;1711076;84;21559;-62
2022/11/18 05:24:15;;;;;;;64.33;32.47;;;;;;;4.91;88.21;94088.08;1711034;84;21568;-62
2022/11/18 05:26:42;;;;;;;53.93;24.43;;;;;;;4.93;88.61;94082.80;1710870;84;21022;-62
2022/11/18 05:29:09;;;;;;;34.50;17.80;;;;;;;4.96;88.60;94083.62;1711075;84;21018;-62
2022/11/18 05:31:36;;;;;;;66.47;31.67;;;;;;;5.06;89.06;94089.48;1711054;84;21535;-62
2022/11/18 05:34:04;;;;;;;15.43;7.80;;;;;;;5.07;88.38;94084.69;1710454;84;21045;-62
2022/11/18 05:36:30;;;;;;;42.97;22.93;;;;;;;5.11;88.43;94090.70;1711225;84;21014;-62
2022/11/18 05:39:00;;;;;;;46.80;24.97;;;;;;;5.11;88.75;94091.55;1710718;84;21045;-62
2022/11/18 05:44:12;;;;;;;76.13;39.07;;;;;;;5.11;87.98;94099.84;1711067;84;21526;-62
2022/11/18 05:46:39;;;;;;;59.47;31.63;;;;;;;5.03;87.78;94101.77;1710940;84;20982;-62
2022/11/18 05:49:06;;;;;;;65.50;34.83;;;;;;;5.01;88.09;94102.24;1711237;84;21091;-62
2022/11/18 05:51:34;;;;;;;105.03;49.33;;;;;;;5.04;88.06;94106.98;1711050;84;21074;-62
2022/11/18 05:54:05;;;;;;;117.50;55.53;;;;;;;4.96;87.72;94116.71;1710684;84;21069;-62
2022/11/18 05:56:36;;;;;;;112.77;52.20;;;;;;;4.84;87.85;94116.53;1710945;84;21081;-62
2022/11/18 05:59:04;;;;;;;118.93;58.80;;;;;;;4.82;87.89;94117.46;1709939;84;21052;-62
2022/11/18 06:01:38;;;;;;;75.33;42.83;;;;;;;4.76;88.47;94124.53;1709887;84;21077;-63
2022/11/18 06:04:10;;;;;;;73.97;41.67;;;;;;;4.84;88.81;94122.19;1709874;84;21052;-68
2022/11/18 06:06:37;;;;;;;104.70;54.73;;;;;;;4.85;88.34;94118.70;1709279;84;21136;-63
2022/11/18 06:09:06;;;;;;;133.93;69.07;;;;;;;4.89;88.46;94125.56;1710547;84;21041;-63
2022/11/18 06:11:41;;;;;;;124.70;63.23;;;;;;;4.90;88.29;94128.16;1709873;83;21065;-62
2022/11/18 06:14:18;;;;;;;48.23;26.20;;;;;;;4.90;88.39;94133.38;1711110;84;21002;-61
2022/11/18 06:16:49;;;;;;;93.43;49.47;;;;;;;4.94;88.61;94129.83;1682490;84;21043;-64
2022/11/18 06:19:16;;;;;;;64.37;37.17;;;;;;;5.00;89.08;94124.91;1710206;84;20990;-62
2022/11/18 06:21:44;;;;;;;40.87;26.27;;;;;;;4.99;88.71;94119.28;1710563;84;21034;-66
2022/11/18 06:24:12;;;;;;;36.93;24.07;;;;;;;4.97;88.78;94122.38;1710458;84;21057;-64
2022/11/18 06:26:40;;;;;;;33.30;23.13;;;;;;;4.94;88.43;94126.36;1710425;84;21112;-65
2022/11/18 06:29:09;;;;;;;28.17;19.37;;;;;;;4.93;88.73;94133.77;1709712;84;21014;-63
2022/11/18 06:31:36;;;;;;;17.37;11.83;;;;;;;4.93;88.78;94131.16;1709316;84;21100;-62
2022/11/18 06:34:02;;;;;;;19.53;11.17;;;;;;;4.92;88.83;94134.67;1710502;84;21006;-62
2022/11/18 06:36:29;;;;;;;17.97;9.60;;;;;;;4.98;88.83;94138.45;1710462;84;21149;-61
2022/11/18 06:38:56;;;;;;;14.80;9.93;;;;;;;4.99;88.72;94139.74;1710292;84;21100;-61
2022/11/18 06:41:22;;;;;;;20.60;11.57;;;;;;;5.04;88.82;94135.73;1681766;84;21100;-63
2022/11/18 06:43:49;;;;;;;19.67;14.37;;;;;;;5.11;88.83;94142.98;1710140;83;21516;-62
2022/11/18 06:49:03;;;;;;;18.30;12.67;;;;;;;5.26;89.00;94135.27;1710291;84;21536;-62
2022/11/18 06:51:29;;;;;;;57.77;28.40;;;;;;;5.32;88.76;94131.23;1710213;84;21073;-61
2022/11/18 06:53:56;;;;;;;29.33;17.10;;;;;;;5.35;88.71;94130.70;1709658;84;20959;-61
2022/11/18 06:56:23;;;;;;;28.37;17.63;;;;;;;5.40;88.59;94130.60;1710791;84;20994;-63
2022/11/18 06:58:55;;;;;;;30.07;17.80;;;;;;;5.41;88.57;94137.09;1709670;84;21068;-61
2022/11/18 07:01:25;;;;;;;33.23;25.60;;;;;;;5.48;88.77;94139.13;1709500;84;21072;-62
2022/11/18 07:03:52;;;;;;;29.33;19.87;;;;;;;5.60;89.21;94134.94;1710078;84;21686;-62
2022/11/18 07:06:22;;;;;;;18.47;13.60;;;;;;;5.71;88.61;94137.30;1710811;84;20990;-61
2022/11/18 07:08:50;;;;;;;19.57;11.93;;;;;;;5.79;88.40;94134.50;1710141;84;21089;-63
2022/11/18 07:11:21;;;;;;;17.90;11.30;;;;;;;5.86;88.25;94131.70;1712143;84;21551;-61
2022/11/18 07:13:48;;;;;;;17.50;10.67;;;;;;;5.88;87.57;94130.81;1684203;85;21572;-62
2022/11/18 07:16:19;;;;;;;20.27;12.17;;;;;;;5.92;87.79;94131.14;1713854;84;21098;-64
2022/11/18 07:18:47;;;;;;;18.70;14.53;;;;;;;6.00;87.79;94130.10;1682046;84;21077;-61
2022/11/18 07:21:18;;;;;;;20.47;14.33;;;;;;;6.11;87.59;94135.06;1682209;84;21103;-61
2022/11/18 07:23:46;;;;;;;45.67;36.70;;;;;;;6.21;87.78;94133.94;1705748;84;21342;-63
2022/11/18 07:26:14;;;;;;;43.37;38.67;;;;;;;6.28;86.91;94132.03;1682791;85;21001;-62
2022/11/18 07:28:41;;;;;;;16.47;12.00;;;;;;;6.32;86.63;94124.48;1713643;84;21078;-64
2022/11/18 07:31:13;;;;;;;17.60;12.93;;;;;;;6.29;86.42;94125.42;1712947;83;21675;-62
2022/11/18 07:33:41;;;;;;;15.67;10.97;;;;;;;6.31;86.78;94124.55;1713267;84;21062;-64
2022/11/18 07:36:11;;;;;;;15.90;10.63;;;;;;;6.36;87.02;94120.05;1713836;83;21085;-60
2022/11/18 07:38:39;;;;;;;17.03;11.70;;;;;;;6.36;86.53;94119.59;1713805;84;21080;-62
2022/11/18 07:41:12;;;;;;;18.73;11.23;;;;;;;6.36;86.35;94109.11;1713318;84;21664;-63
2022/11/18 07:43:40;;;;;;;15.40;10.80;;;;;;;6.34;86.50;94116.14;1713318;84;21518;-63
2022/11/18 07:46:32;;;;;;;16.57;11.33;;;;;;;6.28;86.18;94109.77;1713915;83;21023;-62
2022/11/18 07:49:02;;;;;;;19.63;12.53;;;;;;;6.34;86.21;94123.15;1714031;84;21538;-65
2022/11/18 07:51:36;;;;;;;163.73;49.07;;;;;;;6.39;86.56;94115.58;1713687;84;21031;-61
2022/11/18 07:54:09;;;;;;;49.87;23.13;;;;;;;6.44;86.19;94115.46;1713440;83;21112;-63
2022/11/18 07:56:36;;;;;;;20.08;13.58;;;;;;;6.47;86.02;94121.92;1683676;85;21044;-63
2022/11/18 07:59:03;;;;;;;19.73;13.03;;;;;;;6.49;86.20;94123.59;1683468;85;21483;-65
2022/11/18 08:01:30;;;;;;;27.50;19.47;;;;;;;6.54;86.20;94129.18;1712020;84;21568;-63
2022/11/18 08:04:06;;;;;;;22.77;17.27;;;;;;;6.60;86.56;94119.41;1713717;83;21499;-61
2022/11/18 08:06:33;;;;;;;25.50;16.87;;;;;;;6.66;86.49;94116.61;1683104;85;21614;-60
2022/11/18 08:09:01;;;;;;;26.57;20.23;;;;;;;6.70;86.12;94111.70;1683420;85;21592;-64
2022/11/18 08:11:28;;;;;;;24.13;16.70;;;;;;;6.67;85.47;94105.66;1706562;84;21142;-63
2022/11/18 08:13:54;;;;;;;18.80;13.67;;;;;;;6.72;85.32;94122.98;1678274;85;21039;-63
2022/11/18 08:16:23;;;;;;;31.73;23.70;;;;;;;6.77;85.17;94108.44;1677494;85;21146;-63
2022/11/18 08:18:51;;;;;;;20.43;12.30;;;;;;;6.82;85.26;94103.92;1678728;85;21637;-63
2022/11/18 08:21:20;;;;;;;22.63;15.00;;;;;;;6.84;84.94;94106.52;1678238;85;21142;-63
2022/11/18 08:23:52;;;;;;;15.00;10.67;;;;;;;6.90;85.40;94103.70;1678764;85;21125;-63
2022/11/18 08:26:20;;;;;;;15.90;10.23;;;;;;;7.08;85.53;94106.25;1678303;85;21237;-63
2022/11/18 08:28:47;;;;;;;15.33;11.00;;;;;;;7.21;84.71;94105.47;1679205;85;21054;-63
2022/11/18 08:31:24;;;;;;;14.67;9.63;;;;;;;7.34;85.19;94105.05;1679167;85;21482;-62
2022/11/18 08:33:59;;;;;;;10.83;7.10;;;;;;;7.53;85.42;94111.04;1679302;85;21008;-64
2022/11/18 08:36:29;;;;;;;12.97;9.40;;;;;;;7.66;84.53;94111.09;1678435;85;21036;-62
2022/11/18 08:38:57;;;;;;;11.33;7.80;;;;;;;7.83;84.32;94108.38;1678167;85;21106;-66
2022/11/18 08:41:42;;;;;;;13.53;9.97;;;;;;;7.90;82.58;94116.47;1678427;85;21004;-63
2022/11/18 08:44:15;;;;;;;10.93;8.20;;;;;;;7.95;82.04;94113.23;1678539;85;21084;-61
2022/11/18 08:46:45;;;;;;;9.95;7.70;;;;;;;8.03;82.59;94116.00;1679574;85;21051;-63
2022/11/18 08:49:11;;;;;;;8.70;6.20;;;;;;;8.15;82.55;94117.84;1678474;85;21079;-62
2022/11/18 08:51:38;;;;;;;10.05;6.50;;;;;;;8.18;81.50;94122.53;1678776;85;21048;-62
2022/11/18 08:54:05;;;;;;;9.15;6.05;;;;;;;8.22;81.21;94129.41;1679256;85;21043;-61
2022/11/18 08:56:31;;;;;;;8.28;6.28;;;;;;;8.33;81.48;94124.26;1679184;85;21031;-62
2022/11/18 08:58:58;;;;;;;10.72;6.80;;;;;;;8.38;80.50;94113.13;1679405;85;21070;-61
2022/11/18 09:01:25;;;;;;;9.10;6.35;;;;;;;8.36;79.12;94116.27;1678416;85;21130;-63
2022/11/18 09:03:51;;;;;;;7.45;5.55;;;;;;;8.36;80.25;94113.63;1678422;85;21044;-63
2022/11/18 09:06:21;;;;;;;10.43;5.65;;;;;;;8.39;78.87;94110.89;1679392;85;21095;-62
2022/11/18 09:08:48;;;;;;;6.53;4.92;;;;;;;8.36;78.75;94106.60;1680071;85;21059;-62
2022/11/18 09:11:18;;;;;;;7.08;5.25;;;;;;;8.40;79.25;94103.47;1685148;84;21037;-63
2022/11/18 09:13:45;;;;;;;6.87;4.62;;;;;;;8.42;79.33;94096.39;1704922;83;21025;-61
2022/11/18 09:16:13;;;;;;;8.10;5.30;;;;;;;8.42;78.45;94109.08;1704740;84;21536;-63
2022/11/18 09:18:39;;;;;;;9.53;7.00;;;;;;;8.42;79.06;94101.19;1705222;83;21048;-64
2022/11/18 09:21:08;;;;;;;14.65;7.30;;;;;;;8.37;78.70;94093.88;1705686;83;21089;-65
2022/11/18 09:23:38;;;;;;;12.47;7.67;;;;;;;8.33;78.90;94095.34;1705156;84;20986;-63
2022/11/18 09:26:09;;;;;;;15.78;9.65;;;;;;;8.27;78.72;94098.20;1704652;83;21121;-63
2022/11/18 09:28:36;;;;;;;8.45;6.30;;;;;;;8.23;79.22;94088.23;1688663;83;21607;-62
2022/11/18 09:31:12;;;;;;;12.25;8.63;;;;;;;8.17;78.45;94087.98;1676505;84;21044;-63
2022/11/18 09:33:39;;;;;;;10.30;7.55;;;;;;;8.17;78.99;94088.45;1737217;81;21117;-62
2022/11/18 09:36:13;;;;;;;8.00;6.37;;;;;;;8.19;79.52;94086.63;1737290;82;21158;-62
2022/11/18 09:38:40;;;;;;;9.95;5.80;;;;;;;8.22;79.66;94089.15;1736351;81;21062;-63
2022/11/18 09:41:46;;;;;;;8.95;6.60;;;;;;;8.25;79.78;94091.67;1737579;82;21075;-64
2022/11/18 09:44:33;;;;;;;8.58;6.90;;;;;;;8.30;79.92;94087.11;1737654;82;21016;-63
2022/11/18 09:47:26;;;;;;;10.72;6.95;;;;;;;8.34;79.92;94090.05;1737988;82;21011;-67
2022/11/18 09:49:56;;;;;;;11.45;5.15;;;;;;;8.40;79.89;94082.44;1672176;86;20986;-69
2022/11/18 09:52:30;;;;;;;15.15;13.03;;;;;;;8.41;79.71;94080.20;1712676;82;21068;-69
2022/11/18 09:54:58;;;;;;;13.93;10.25;;;;;;;8.41;79.77;94080.20;1687449;85;21479;-71
2022/11/18 09:57:36;;;;;;;11.95;10.35;;;;;;;8.40;78.50;94083.29;1679521;85;21082;-72
2022/11/18 10:00:20;;;;;;;8.33;5.75;;;;;;;8.40;78.85;94078.03;1675320;86;21105;-73
2022/11/18 10:03:05;;;;;;;16.23;14.20;;;;;;;8.39;78.66;94080.27;1736972;82;21627;-74
2022/11/18 10:05:45;;;;;;;12.37;10.98;;;;;;;8.41;78.95;94079.73;1737228;82;21508;-74
2022/11/18 10:08:26;;;;;;;11.22;5.40;;;;;;;8.44;79.02;94080.09;1736587;82;21030;-69
2022/11/18 10:11:01;;;;;;;7.25;5.15;;;;;;;8.50;78.84;94075.95;1736701;82;21058;-71
2022/11/18 10:13:45;;;;;;;7.28;5.53;;;;;;;8.51;78.66;94064.52;1737346;82;21002;-72
2022/11/18 10:16:44;;;;;;;7.53;5.90;;;;;;;8.58;78.69;94063.39;1736599;82;21141;-71
2022/11/18 10:19:35;;;;;;;7.10;5.28;;;;;;;8.60;77.43;94057.63;1706596;82;21085;-71
2022/11/18 10:22:40;;;;;;;6.08;5.15;;;;;;;8.63;78.29;94049.63;1737555;82;21011;-72
2022/11/18 10:25:13;;;;;;;9.35;7.37;;;;;;;8.74;78.44;94048.37;1737578;82;21029;-72
2022/11/18 10:27:43;;;;;;;40.08;24.00;;;;;;;8.74;76.71;94037.86;1737868;82;21022;-71
2022/11/18 10:30:21;;;;;;;14.68;11.95;;;;;;;8.76;77.03;94042.61;1738204;82;21493;-71
2022/11/18 10:33:03;;;;;;;8.18;5.80;;;;;;;8.79;76.86;94025.39;1737401;82;21085;-71
2022/11/18 10:35:37;;;;;;;7.42;5.35;;;;;;;8.85;77.37;94024.73;1738097;82;21010;-71
2022/11/18 10:38:18;;;;;;;41.48;23.65;;;;;;;8.86;76.51;94028.20;1737853;82;21065;-71
2022/11/18 10:40:52;;;;;;;28.90;17.45;;;;;;;8.83;76.33;94019.97;1737420;82;21002;-71
2022/11/18 10:43:55;;;;;;;21.97;12.82;;;;;;;8.74;75.82;94016.36;1738104;82;21049;-71
2022/11/18 10:46:34;;;;;;;10.43;6.37;;;;;;;8.73;76.46;94008.08;1738178;82;21005;-71
2022/11/18 10:49:15;;;;;;;10.08;6.50;;;;;;;8.71;76.45;94004.64;1737965;82;21034;-71
2022/11/18 10:51:50;;;;;;;6.50;5.47;;;;;;;8.68;76.68;94003.91;1738418;82;21002;-70
2022/11/18 10:54:22;;;;;;;7.37;5.00;;;;;;;8.65;76.96;93997.00;1734952;82;21120;-71
2022/11/18 10:57:14;;;;;;;7.55;4.47;;;;;;;8.62;76.89;94005.00;1737126;82;21041;-70
2022/11/18 10:59:56;;;;;;;6.83;6.12;;;;;;;8.59;76.95;94002.03;1737954;82;20976;-71
2022/11/18 11:02:33;;;;;;;5.08;4.10;;;;;;;8.59;76.92;93997.20;1737562;82;21006;-70
2022/11/18 11:05:04;;;;;;;5.40;3.98;;;;;;;8.57;77.11;93992.48;1736907;82;21037;-71
2022/11/18 11:07:36;;;;;;;5.20;3.83;;;;;;;8.56;77.04;93986.80;1736611;82;21074;-71
2022/11/18 11:10:14;;;;;;;8.58;4.78;;;;;;;8.51;77.19;93981.70;1737987;82;21026;-71
2022/11/18 11:12:59;;;;;;;12.15;5.47;;;;;;;8.48;77.75;93980.52;1738277;82;21006;-71
2022/11/18 11:15:45;;;;;;;6.50;4.87;;;;;;;8.44;77.99;93976.27;1738264;82;21065;-71
2022/11/18 11:18:41;;;;;;;7.15;5.15;;;;;;;8.42;78.37;93980.75;1738015;82;21085;-71
2022/11/18 11:21:18;;;;;;;7.87;6.12;;;;;;;8.37;78.72;93970.83;1738305;82;21022;-71
2022/11/18 11:23:46;;;;;;;8.60;5.92;;;;;;;8.35;78.90;93967.39;1737484;82;21042;-71
2022/11/18 11:26:30;;;;;;;12.05;6.00;;;;;;;8.34;79.54;93963.91;1738333;82;20994;-70
2022/11/18 11:29:23;;;;;;;8.85;6.45;;;;;;;8.32;79.82;93966.20;1737411;82;21050;-70
2022/11/18 11:32:04;;;;;;;11.05;7.78;;;;;;;8.31;80.13;93969.72;1738279;82;21441;-70
2022/11/18 11:34:51;;;;;;;10.40;7.25;;;;;;;8.31;81.03;93964.45;1738079;82;21066;-70
2022/11/18 11:37:23;;;;;;;11.53;7.87;;;;;;;8.28;81.35;93960.64;1736672;82;21045;-71
2022/11/18 11:40:04;;;;;;;10.63;7.75;;;;;;;8.30;81.52;93954.88;1738242;82;21485;-71
2022/11/18 11:43:04;;;;;;;12.15;8.05;;;;;;;8.33;81.61;93951.66;1738214;82;21460;-70
2022/11/18 11:45:45;;;;;;;11.43;8.38;;;;;;;8.37;82.12;93955.06;1737694;82;21034;-71
2022/11/18 11:48:33;;;;;;;14.25;8.70;;;;;;;8.42;82.43;93940.02;1738363;82;21038;-71
2022/11/18 11:51:07;;;;;;;13.55;8.53;;;;;;;8.49;82.76;93939.31;1738432;82;21019;-71
2022/11/18 11:54:12;;;;;;;14.05;8.45;;;;;;;8.54;82.93;93934.30;1738235;82;21081;-71
2022/11/18 11:56:59;;;;;;;9.85;7.72;;;;;;;8.58;83.18;93938.52;1738182;82;21018;-71
2022/11/18 12:00:01;;;;;;;10.10;7.15;;;;;;;8.66;83.48;93932.97;1737892;82;21028;-71
2022/11/18 12:02:47;;;;;;;10.72;7.58;;;;;;;8.73;83.61;93927.88;1737816;82;21034;-70
2022/11/18 12:05:33;;;;;;;13.90;10.40;;;;;;;8.75;83.15;93923.89;1738426;82;21014;-70
2022/11/18 12:08:03;;;;;;;15.40;10.55;;;;;;;8.71;83.26;93924.45;1738222;82;21026;-71
2022/11/18 12:11:00;;;;;;;15.68;11.22;;;;;;;8.77;83.42;93923.34;1737936;82;21038;-70
2022/11/18 12:14:02;;;;;;;17.12;10.10;;;;;;;8.84;83.24;93919.14;1737561;82;21010;-71
2022/11/18 12:16:52;;;;;;;15.23;9.60;;;;;;;8.81;82.43;93925.80;1738515;82;21472;-70
2022/11/18 12:19:22;;;;;;;16.52;10.35;;;;;;;8.77;82.34;93922.91;1738214;82;20998;-71